createdAt,value
2023-03-31T00:02:14.006Z,140.13
2023-03-31T00:04:46.448Z,152.88
2023-03-31T00:07:15.022Z,164.50
2023-03-31T00:09:46.089Z,138.65
2023-03-31T00:12:14.759Z,173.18
2023-03-31T00:14:42.292Z,154.93
2023-03-31T00:17:10.660Z,158.02
2023-03-31T00:19:37.357Z,181.73
2023-03-31T00:22:05.471Z,187.40
2023-03-31T00:24:33.205Z,194.32
2023-03-31T00:27:04.909Z,185.15
2023-03-31T00:29:33.670Z,201.05
2023-03-31T00:32:00.616Z,194.88
2023-03-31T00:34:27.799Z,193.80
2023-03-31T00:36:56.683Z,182.63
2023-03-31T00:39:24.728Z,194.50
2023-03-31T00:41:51.407Z,193.25
2023-03-31T00:44:27.723Z,213.95
2023-03-31T00:47:02.266Z,218.57
2023-03-31T00:49:33.822Z,222.02
2023-03-31T00:52:06.626Z,228.82
2023-03-31T00:54:35.976Z,232.20
2023-03-31T00:57:06.777Z,233.65
2023-03-31T00:59:39.614Z,218.32
2023-03-31T01:02:06.812Z,240.52
2023-03-31T01:04:43.054Z,213.20
2023-03-31T01:07:25.793Z,221.82
2023-03-31T01:09:55.726Z,219.57
2023-03-31T01:12:23.218Z,243.63
2023-03-31T01:14:51.188Z,243.88
2023-03-31T01:17:21.626Z,199.95
2023-03-31T01:20:07.117Z,219.85
2023-03-31T01:23:07.955Z,223.93
2023-03-31T01:26:02.794Z,220.48
2023-03-31T01:28:38.249Z,228.98
2023-03-31T01:31:16.936Z,202.60
2023-03-31T01:33:59.468Z,241.20
2023-03-31T01:37:04.741Z,218.05
2023-03-31T01:39:46.169Z,199.73
2023-03-31T01:42:21.739Z,219.98
2023-03-31T01:45:19.982Z,228.63
2023-03-31T01:47:59.768Z,233.60
2023-03-31T01:50:35.375Z,225.27
2023-03-31T01:53:15.519Z,233.90
2023-03-31T01:56:09.562Z,236.57
2023-03-31T01:58:44.312Z,239.52
2023-03-31T02:01:34.488Z,238.85
2023-03-31T02:04:14.765Z,233.90
2023-03-31T02:06:46.877Z,233.10
2023-03-31T02:09:18.353Z,245.55
2023-03-31T02:11:47.018Z,248.25
2023-03-31T02:14:18.875Z,254.80
2023-03-31T02:16:47.604Z,254.30
2023-03-31T02:19:18.830Z,258.15
2023-03-31T02:21:49.805Z,247.93
2023-03-31T02:24:19.362Z,250.38
2023-03-31T02:26:53.875Z,255.23
2023-03-31T02:29:20.923Z,260.88
2023-03-31T02:31:50.618Z,244.65
2023-03-31T02:34:17.339Z,241.18
2023-03-31T02:36:45.723Z,249.93
2023-03-31T02:39:18.057Z,251.48
2023-03-31T02:41:45.124Z,255.15
2023-03-31T02:44:12.468Z,254.25
2023-03-31T02:46:41.044Z,237.55
2023-03-31T02:49:12.013Z,243.25
2023-03-31T02:52:06.711Z,242.45
2023-03-31T02:55:11.354Z,219.38
2023-03-31T02:57:47.123Z,209.43
2023-03-31T03:00:14.260Z,224.02
2023-03-31T03:03:14.668Z,233.45
2023-03-31T03:05:49.960Z,226.90
2023-03-31T03:08:49.156Z,214.23
2023-03-31T03:11:27.617Z,230.38
2023-03-31T03:14:17.345Z,231.23
2023-03-31T03:16:49.966Z,219.50
2023-03-31T03:19:22.359Z,214.23
2023-03-31T03:21:49.031Z,197.13
2023-03-31T03:24:17.080Z,194.05
2023-03-31T03:26:44.993Z,168.50
2023-03-31T03:29:15.266Z,157.07
2023-03-31T03:31:42.771Z,155.20
2023-03-31T03:34:09.825Z,154.60
2023-03-31T03:36:37.877Z,156.32
2023-03-31T03:39:07.656Z,158.35
2023-03-31T03:41:34.604Z,184.57
2023-03-31T03:44:01.490Z,187.02
2023-03-31T03:46:28.235Z,183.02
2023-03-31T03:48:55.997Z,188.50
2023-03-31T03:51:23.263Z,190.77
2023-03-31T03:53:49.959Z,185.48
2023-03-31T03:56:16.570Z,191.02
2023-03-31T03:58:43.150Z,189.07
2023-03-31T04:01:09.782Z,190.80
2023-03-31T04:03:36.475Z,195.90
2023-03-31T04:06:03.158Z,176.00
2023-03-31T04:08:29.706Z,192.88
2023-03-31T04:10:56.591Z,219.63
2023-03-31T04:13:23.168Z,217.18
2023-03-31T04:15:49.825Z,198.45
2023-03-31T04:18:25.673Z,214.68
2023-03-31T04:21:16.847Z,214.90
2023-03-31T04:23:46.874Z,214.77
2023-03-31T04:26:15.392Z,213.82
2023-03-31T04:28:50.737Z,209.40
2023-03-31T04:31:25.342Z,213.02
2023-03-31T04:33:55.579Z,202.48
2023-03-31T04:36:22.572Z,201.02
2023-03-31T04:38:51.004Z,188.57
2023-03-31T04:41:17.988Z,188.32
2023-03-31T04:43:45.397Z,198.70
2023-03-31T04:46:12.203Z,209.38
2023-03-31T04:48:39.060Z,210.85
2023-03-31T04:51:06.303Z,214.57
2023-03-31T04:53:32.968Z,203.75
2023-03-31T04:55:59.721Z,191.75
2023-03-31T04:58:26.308Z,187.52
2023-03-31T05:00:53.210Z,190.90
2023-03-31T05:03:20.732Z,196.73
2023-03-31T05:05:48.527Z,195.85
2023-03-31T05:08:15.376Z,197.30
2023-03-31T05:10:42.008Z,192.30
2023-03-31T05:13:11.389Z,181.40
2023-03-31T05:15:39.575Z,158.35
2023-03-31T05:18:07.256Z,148.73
2023-03-31T05:20:33.941Z,153.02
2023-03-31T05:23:00.634Z,151.48
2023-03-31T05:25:32.619Z,154.80
2023-03-31T05:28:00.116Z,168.57
2023-03-31T05:30:27.851Z,168.60
2023-03-31T05:32:54.903Z,187.68
2023-03-31T05:35:21.894Z,250.35
2023-03-31T05:37:48.649Z,184.57
2023-03-31T05:40:15.404Z,193.00
2023-03-31T05:42:42.050Z,206.80
2023-03-31T05:45:09.457Z,211.80
2023-03-31T05:47:36.776Z,217.77
2023-03-31T05:50:07.785Z,212.35
2023-03-31T05:52:35.624Z,220.68
2023-03-31T05:55:02.551Z,215.88
2023-03-31T05:57:29.145Z,218.50
2023-03-31T05:59:55.839Z,221.23
2023-03-31T06:02:22.595Z,210.18
2023-03-31T06:04:50.253Z,247.80
2023-03-31T06:07:17.895Z,214.13
2023-03-31T06:09:45.724Z,202.43
2023-03-31T06:12:12.300Z,198.93
2023-03-31T06:14:38.905Z,180.00
2023-03-31T06:17:05.462Z,177.13
2023-03-31T06:19:32.060Z,177.13
2023-03-31T06:21:58.689Z,174.90
2023-03-31T06:24:25.512Z,199.95
2023-03-31T06:26:53.768Z,161.85
2023-03-31T06:29:20.808Z,239.75
2023-03-31T06:31:47.424Z,193.07
2023-03-31T06:34:14.039Z,136.32
2023-03-31T06:36:41.446Z,105.45
2023-03-31T06:39:08.038Z,83.60
2023-03-31T06:41:34.692Z,163.70
2023-03-31T06:44:01.268Z,106.90
2023-03-31T06:46:27.958Z,99.75
2023-03-31T06:48:54.586Z,106.55
2023-03-31T06:51:21.194Z,96.43
2023-03-31T06:53:47.784Z,97.05
2023-03-31T06:56:14.474Z,70.00
2023-03-31T06:58:41.059Z,52.88
2023-03-31T07:01:08.245Z,46.53
2023-03-31T07:03:35.618Z,48.17
2023-03-31T07:06:02.310Z,39.65
2023-03-31T07:08:28.910Z,33.30
2023-03-31T07:10:58.024Z,34.38
2023-03-31T07:13:25.840Z,37.47
2023-03-31T07:15:52.470Z,41.60
2023-03-31T07:18:19.676Z,42.42
2023-03-31T07:20:50.520Z,52.15
2023-03-31T07:23:18.537Z,38.42
2023-03-31T07:25:46.961Z,38.38
2023-03-31T07:28:13.560Z,38.78
2023-03-31T07:30:41.371Z,65.32
2023-03-31T07:33:08.276Z,72.78
2023-03-31T07:35:38.863Z,43.38
2023-03-31T07:38:05.709Z,78.22
2023-03-31T07:40:32.434Z,122.43
2023-03-31T07:42:59.018Z,131.48
2023-03-31T07:45:26.855Z,121.30
2023-03-31T07:47:54.085Z,119.97
2023-03-31T07:50:21.642Z,117.43
2023-03-31T07:52:48.402Z,58.47
2023-03-31T07:55:15.539Z,68.85
2023-03-31T07:57:43.682Z,75.07
2023-03-31T08:00:12.693Z,68.88
2023-03-31T08:02:42.911Z,64.15
2023-03-31T08:05:12.007Z,56.08
2023-03-31T08:07:41.764Z,75.78
2023-03-31T08:10:11.099Z,79.97
2023-03-31T08:12:37.685Z,70.38
2023-03-31T08:15:04.965Z,51.95
2023-03-31T08:17:31.634Z,48.63
2023-03-31T08:20:01.597Z,44.55
2023-03-31T08:22:30.604Z,47.60
2023-03-31T08:24:57.156Z,40.15
2023-03-31T08:27:23.808Z,41.20
2023-03-31T08:29:50.421Z,37.22
2023-03-31T08:32:17.175Z,39.00
2023-03-31T08:34:43.940Z,33.42
2023-03-31T08:37:10.548Z,34.72
2023-03-31T08:39:37.351Z,35.20
2023-03-31T08:42:20.215Z,35.65
2023-03-31T08:45:07.245Z,31.98
2023-03-31T08:47:36.685Z,35.92
2023-03-31T08:50:11.362Z,37.42
2023-03-31T08:52:48.016Z,32.38
2023-03-31T08:55:26.649Z,30.05
2023-03-31T08:58:01.628Z,33.00
2023-03-31T09:00:37.741Z,33.97
2023-03-31T09:03:16.466Z,34.00
2023-03-31T09:06:13.027Z,36.65
2023-03-31T09:08:42.159Z,35.42
2023-03-31T09:11:42.560Z,35.90
2023-03-31T09:14:12.036Z,33.78
2023-03-31T09:16:53.816Z,38.22
2023-03-31T09:19:35.799Z,32.20
2023-03-31T09:22:05.871Z,39.97
2023-03-31T09:24:47.665Z,41.97
2023-03-31T09:27:15.336Z,41.08
2023-03-31T09:30:09.510Z,25.92
2023-03-31T09:32:38.312Z,31.17
2023-03-31T09:35:25.407Z,25.63
2023-03-31T09:37:54.035Z,23.40
2023-03-31T09:40:24.143Z,27.20
2023-03-31T09:43:00.500Z,20.58
2023-03-31T09:45:27.952Z,25.10
2023-03-31T09:47:57.469Z,22.73
2023-03-31T09:50:25.522Z,20.05
2023-03-31T09:52:55.840Z,24.45
2023-03-31T09:55:38.144Z,22.80
2023-03-31T09:58:08.203Z,25.20
2023-03-31T10:00:35.246Z,21.95
2023-03-31T10:03:07.411Z,23.30
2023-03-31T10:05:41.327Z,23.58
2023-03-31T10:08:17.279Z,25.67
2023-03-31T10:11:04.196Z,25.52
2023-03-31T10:13:59.808Z,24.30
2023-03-31T10:16:45.716Z,26.00
2023-03-31T10:19:25.998Z,23.02
2023-03-31T10:22:17.011Z,24.75
2023-03-31T10:24:45.478Z,21.77
2023-03-31T10:27:20.140Z,21.35
2023-03-31T10:29:47.239Z,18.45
2023-03-31T10:32:16.784Z,18.40
2023-03-31T10:34:43.740Z,18.88
2023-03-31T10:37:22.606Z,16.77
2023-03-31T10:39:57.945Z,19.73
2023-03-31T10:42:25.675Z,19.45
2023-03-31T10:45:11.240Z,19.85
2023-03-31T10:47:40.642Z,18.75
2023-03-31T10:50:14.899Z,17.45
2023-03-31T10:55:24.490Z,18.45
2023-03-31T10:57:58.909Z,17.85
2023-03-31T11:00:32.916Z,20.08
2023-03-31T11:03:11.401Z,22.23
2023-03-31T11:06:12.299Z,20.23
2023-03-31T11:08:59.093Z,17.58
2023-03-31T11:12:10.053Z,18.45
2023-03-31T11:14:42.625Z,16.88
2023-03-31T11:17:09.288Z,16.13
2023-03-31T11:20:07.222Z,16.10
2023-03-31T11:23:00.311Z,17.52
2023-03-31T11:25:32.927Z,16.77
2023-03-31T11:28:20.716Z,16.42
2023-03-31T11:31:10.323Z,14.23
2023-03-31T11:33:50.371Z,13.80
2023-03-31T11:36:58.660Z,15.23
2023-03-31T11:39:44.904Z,15.27
2023-03-31T11:42:25.649Z,15.52
2023-03-31T11:45:02.591Z,17.17
2023-03-31T11:47:35.067Z,17.27
2023-03-31T11:50:10.743Z,15.50
2023-03-31T11:52:45.880Z,16.58
2023-03-31T11:55:21.562Z,20.55
2023-03-31T11:58:01.048Z,18.80
2023-03-31T12:00:36.384Z,18.23
2023-03-31T12:03:19.825Z,17.00
2023-03-31T12:05:52.094Z,15.90
2023-03-31T12:08:36.832Z,16.42
2023-03-31T12:11:27.780Z,16.60
2023-03-31T12:14:11.892Z,16.88
2023-03-31T12:17:10.789Z,16.85
2023-03-31T12:19:40.356Z,16.00
2023-03-31T12:22:30.737Z,13.80
2023-03-31T12:24:57.380Z,13.35
2023-03-31T12:27:44.576Z,12.60
2023-03-31T12:30:22.526Z,13.80
2023-03-31T12:33:19.794Z,12.48
2023-03-31T12:35:55.423Z,12.52
2023-03-31T12:38:55.781Z,11.85
2023-03-31T12:41:28.381Z,11.60
2023-03-31T12:44:13.073Z,12.13
2023-03-31T12:46:42.693Z,12.23
2023-03-31T12:49:37.079Z,12.43
2023-03-31T12:52:06.573Z,13.40
2023-03-31T12:54:45.013Z,13.50
2023-03-31T12:57:11.583Z,13.30
2023-03-31T12:59:41.560Z,13.43
2023-03-31T13:02:26.732Z,12.98
2023-03-31T13:04:53.469Z,13.43
2023-03-31T13:07:29.204Z,13.20
2023-03-31T13:10:21.577Z,14.85
2023-03-31T13:13:02.106Z,15.02
2023-03-31T13:15:30.261Z,13.73
2023-03-31T13:18:03.266Z,15.48
2023-03-31T13:20:42.867Z,14.80
2023-03-31T13:23:12.186Z,13.40
2023-03-31T13:25:44.047Z,13.23
2023-03-31T13:28:13.934Z,12.25
2023-03-31T13:30:40.776Z,12.40
2023-03-31T13:33:31.855Z,13.25
2023-03-31T13:36:04.333Z,12.88
2023-03-31T13:39:03.675Z,15.20
2023-03-31T13:41:54.694Z,12.75
2023-03-31T13:44:40.085Z,13.30
2023-03-31T13:47:18.239Z,12.55
2023-03-31T13:49:52.947Z,13.35
2023-03-31T13:52:39.782Z,12.75
2023-03-31T13:55:43.954Z,12.52
2023-03-31T13:58:29.497Z,12.88
2023-03-31T14:01:15.475Z,11.65
2023-03-31T14:04:19.463Z,12.60
2023-03-31T14:06:54.734Z,12.40
2023-03-31T14:09:30.006Z,12.80
2023-03-31T14:12:00.051Z,13.88
2023-03-31T14:14:28.021Z,13.10
2023-03-31T14:16:56.741Z,13.43
2023-03-31T14:20:10.996Z,13.38
2023-03-31T14:22:48.209Z,13.07
2023-03-31T14:25:36.325Z,13.18
2023-03-31T14:28:34.750Z,12.52
2023-03-31T14:31:41.243Z,14.48
2023-03-31T14:34:12.126Z,13.63
2023-03-31T14:36:57.960Z,12.35
2023-03-31T14:39:29.558Z,12.82
2023-03-31T14:42:02.531Z,13.10
2023-03-31T14:44:30.194Z,12.15
2023-03-31T14:46:58.525Z,12.90
2023-03-31T14:49:28.579Z,11.68
2023-03-31T14:52:00.880Z,11.35
2023-03-31T14:54:27.465Z,11.50
2023-03-31T14:56:58.561Z,11.48
2023-03-31T14:59:29.314Z,11.95
2023-03-31T15:01:58.779Z,11.30
2023-03-31T15:04:41.333Z,11.80
2023-03-31T15:07:08.869Z,12.57
2023-03-31T15:09:36.486Z,12.23
2023-03-31T15:12:06.767Z,12.48
2023-03-31T15:14:41.173Z,13.60
2023-03-31T15:17:18.055Z,11.80
2023-03-31T15:19:44.764Z,12.57
2023-03-31T15:22:16.387Z,12.73
2023-03-31T15:24:42.999Z,12.20
2023-03-31T15:27:55.877Z,11.40
2023-03-31T15:30:25.734Z,11.90
2023-03-31T15:32:56.838Z,12.65
2023-03-31T15:35:33.168Z,11.98
2023-03-31T15:38:01.960Z,14.40
2023-03-31T15:40:31.434Z,15.05
2023-03-31T15:43:13.509Z,13.38
2023-03-31T15:45:54.818Z,13.55
2023-03-31T15:48:26.058Z,14.40
2023-03-31T15:50:53.294Z,13.05
2023-03-31T15:53:28.488Z,13.43
2023-03-31T15:56:02.303Z,12.20
2023-03-31T15:58:53.432Z,14.07
2023-03-31T16:01:20.951Z,12.20
2023-03-31T16:03:47.953Z,12.30
2023-03-31T16:06:36.891Z,11.55
2023-03-31T16:09:09.468Z,12.40
2023-03-31T16:11:43.988Z,12.00
2023-03-31T16:14:18.779Z,12.18
2023-03-31T16:16:52.873Z,11.90
2023-03-31T16:19:22.310Z,12.45
2023-03-31T16:21:52.767Z,12.88
2023-03-31T16:24:21.401Z,12.73
2023-03-31T16:26:49.033Z,12.13
2023-03-31T16:29:22.445Z,12.00
2023-03-31T16:31:49.587Z,13.37
2023-03-31T16:34:16.737Z,13.48
2023-03-31T16:36:43.401Z,14.95
2023-03-31T16:39:10.031Z,16.67
2023-03-31T16:41:38.106Z,15.40
2023-03-31T16:44:06.422Z,17.60
2023-03-31T16:46:33.415Z,17.83
2023-03-31T16:49:00.161Z,17.88
2023-03-31T16:51:26.792Z,18.70
2023-03-31T16:53:53.434Z,23.60
2023-03-31T16:56:20.236Z,23.98
2023-03-31T16:58:46.966Z,21.20
2023-03-31T17:01:13.600Z,24.70
2023-03-31T17:03:42.258Z,30.83
2023-03-31T17:06:12.101Z,31.25
2023-03-31T17:08:39.948Z,45.63
2023-03-31T17:11:11.723Z,39.20
2023-03-31T17:13:39.989Z,46.35
2023-03-31T17:16:17.524Z,53.85
2023-03-31T17:18:46.003Z,54.53
2023-03-31T17:21:15.036Z,56.50
2023-03-31T17:23:42.596Z,79.32
2023-03-31T17:26:10.599Z,65.22
2023-03-31T17:28:37.622Z,81.30
2023-03-31T17:31:18.911Z,75.55
2023-03-31T17:33:46.289Z,77.70
2023-03-31T17:36:13.472Z,78.70
2023-03-31T17:38:40.425Z,90.95
2023-03-31T17:41:09.051Z,76.15
2023-03-31T17:43:36.147Z,71.93
2023-03-31T17:46:13.805Z,68.53
2023-03-31T17:48:41.179Z,63.50
2023-03-31T17:51:10.328Z,64.70
2023-03-31T17:53:37.139Z,63.40
2023-03-31T17:56:04.660Z,64.45
2023-03-31T17:58:32.320Z,61.00
2023-03-31T18:00:59.357Z,54.10
2023-03-31T18:03:29.243Z,48.17
2023-03-31T18:05:55.855Z,47.15
2023-03-31T18:08:23.099Z,48.45
2023-03-31T18:10:50.595Z,45.17
2023-03-31T18:13:17.506Z,43.45
2023-03-31T18:15:51.571Z,41.03
2023-03-31T18:18:19.330Z,37.65
2023-03-31T18:20:46.136Z,42.47
2023-03-31T18:23:13.050Z,40.00
2023-03-31T18:25:45.265Z,41.95
2023-03-31T18:28:16.107Z,29.30
2023-03-31T18:30:43.584Z,26.25
2023-03-31T18:33:11.047Z,23.55
2023-03-31T18:35:38.061Z,21.48
2023-03-31T18:38:05.483Z,21.55
2023-03-31T18:40:32.367Z,20.70
2023-03-31T18:42:58.956Z,18.98
2023-03-31T18:45:28.018Z,19.42
2023-03-31T18:47:54.953Z,20.52
2023-03-31T18:50:23.306Z,21.65
2023-03-31T18:52:52.426Z,22.45
2023-03-31T18:55:19.376Z,21.40
2023-03-31T18:57:46.050Z,24.00
2023-03-31T19:00:13.116Z,26.45
2023-03-31T19:02:40.086Z,27.00
2023-03-31T19:05:07.061Z,27.83
2023-03-31T19:07:34.040Z,28.70
2023-03-31T19:10:00.637Z,30.13
2023-03-31T19:12:27.338Z,29.55
2023-03-31T19:14:53.913Z,30.67
2023-03-31T19:17:20.468Z,28.90
2023-03-31T19:19:47.755Z,42.20
2023-03-31T19:22:14.351Z,39.35
2023-03-31T19:24:40.978Z,44.70
2023-03-31T19:27:10.671Z,49.72
2023-03-31T19:29:37.237Z,55.30
2023-03-31T19:32:04.326Z,49.25
2023-03-31T19:34:31.000Z,52.67
2023-03-31T19:36:57.896Z,51.95
2023-03-31T19:39:25.920Z,46.45
2023-03-31T19:41:52.480Z,38.08
2023-03-31T19:44:19.033Z,27.08
2023-03-31T19:46:48.154Z,26.58
2023-03-31T19:49:15.390Z,26.20
2023-03-31T19:51:42.041Z,25.95
2023-03-31T19:54:11.456Z,26.58
2023-03-31T19:56:38.346Z,26.10
2023-03-31T19:59:05.953Z,28.83
2023-03-31T20:01:32.798Z,27.33
2023-03-31T20:03:59.745Z,31.98
2023-03-31T20:06:28.540Z,34.92
2023-03-31T20:08:57.434Z,42.42
2023-03-31T20:11:26.166Z,46.60
2023-03-31T20:13:53.835Z,47.72
2023-03-31T20:16:22.861Z,59.20
2023-03-31T20:19:05.085Z,64.60
2023-03-31T20:21:34.565Z,75.80
2023-03-31T20:24:01.420Z,97.85
2023-03-31T20:26:30.194Z,98.07
2023-03-31T20:28:58.214Z,103.47
2023-03-31T20:31:28.206Z,104.93
2023-03-31T20:33:55.575Z,110.28
2023-03-31T20:36:25.660Z,111.65
2023-03-31T20:38:53.937Z,106.70
2023-03-31T20:41:23.899Z,107.53
2023-03-31T20:43:50.683Z,104.55
2023-03-31T20:46:17.708Z,109.93
2023-03-31T20:48:47.789Z,111.65
2023-03-31T20:51:17.430Z,100.90
2023-03-31T20:53:46.806Z,92.70
2023-03-31T20:56:19.799Z,92.90
2023-03-31T20:58:47.767Z,93.00
2023-03-31T21:01:15.062Z,83.45
2023-03-31T21:03:42.360Z,77.22
2023-03-31T21:06:12.248Z,73.90
2023-03-31T21:08:40.947Z,70.97
2023-03-31T21:11:08.340Z,62.20
2023-03-31T21:13:35.094Z,64.38
2023-03-31T21:16:02.274Z,63.97
2023-03-31T21:18:29.920Z,61.28
2023-03-31T21:21:04.428Z,70.32
2023-03-31T21:23:31.846Z,65.90
2023-03-31T21:26:01.289Z,56.80
2023-03-31T21:28:31.227Z,53.60
2023-03-31T21:31:03.672Z,57.53
2023-03-31T21:33:31.839Z,58.20
2023-03-31T21:35:59.132Z,54.83
2023-03-31T21:38:27.904Z,47.85
2023-03-31T21:40:55.853Z,45.58
2023-03-31T21:43:23.608Z,38.72
2023-03-31T21:45:53.343Z,35.55
2023-03-31T21:48:25.160Z,36.03
2023-03-31T21:50:54.658Z,33.03
2023-03-31T21:53:22.902Z,33.33
2023-03-31T21:55:55.389Z,33.25
2023-03-31T21:58:28.463Z,37.47
2023-03-31T22:00:56.184Z,42.20
2023-03-31T22:03:27.700Z,47.13
2023-03-31T22:05:58.670Z,58.17
2023-03-31T22:08:27.170Z,57.47
2023-03-31T22:10:55.879Z,57.25
2023-03-31T22:13:23.601Z,68.10
2023-03-31T22:15:50.850Z,71.43
2023-03-31T22:18:17.887Z,78.35
2023-03-31T22:20:46.289Z,78.95
2023-03-31T22:23:13.072Z,78.13
2023-03-31T22:25:39.662Z,86.13
2023-03-31T22:28:07.527Z,97.60
2023-03-31T22:30:34.227Z,134.65
2023-03-31T22:33:01.426Z,98.82
2023-03-31T22:35:28.626Z,100.80
2023-03-31T22:37:55.643Z,99.35
2023-03-31T22:40:22.463Z,99.88
2023-03-31T22:42:49.068Z,96.95
2023-03-31T22:45:15.815Z,93.25
2023-03-31T22:47:42.579Z,83.38
2023-03-31T22:50:11.480Z,78.57
2023-03-31T22:52:38.091Z,80.78
2023-03-31T22:55:06.251Z,77.20
2023-03-31T22:57:33.265Z,76.90
2023-03-31T22:59:59.993Z,78.60
2023-03-31T23:02:26.689Z,80.03
2023-03-31T23:04:53.274Z,81.10
2023-03-31T23:07:21.871Z,78.22
2023-03-31T23:09:48.782Z,84.53
2023-03-31T23:12:15.521Z,83.15
2023-03-31T23:14:42.128Z,86.32
2023-03-31T23:17:08.735Z,85.18
2023-03-31T23:19:35.514Z,87.70
2023-03-31T23:22:02.639Z,90.97
2023-03-31T23:24:30.083Z,90.72
2023-03-31T23:26:56.719Z,84.28
2023-03-31T23:29:23.375Z,86.65
2023-03-31T23:31:50.060Z,87.18
2023-03-31T23:34:17.083Z,85.45
2023-03-31T23:36:43.641Z,84.30
2023-03-31T23:39:10.677Z,81.40
2023-03-31T23:41:37.256Z,81.03
2023-03-31T23:44:04.820Z,76.88
2023-03-31T23:46:31.896Z,74.00
2023-03-31T23:48:59.087Z,65.32
2023-03-31T23:51:26.176Z,69.47
2023-03-31T23:53:52.916Z,57.42
2023-03-31T23:56:19.903Z,52.70
2023-03-31T23:58:47.121Z,50.40
